sensor_id;sensor_type;location;lat;lon;timestamp;temperature;humidity
16392;DHT22;8305;-33.882;151.134;2023-02-28T00:01:36;24.40;99.90
16392;DHT22;8305;-33.882;151.134;2023-02-28T00:04:07;24.40;99.90
16392;DHT22;8305;-33.882;151.134;2023-02-28T00:06:41;24.30;99.90
16392;DHT22;8305;-33.882;151.134;2023-02-28T00:09:12;24.20;99.90
16392;DHT22;8305;-33.882;151.134;2023-02-28T00:11:43;24.20;99.90
16392;DHT22;8305;-33.882;151.134;2023-02-28T00:14:14;24.20;99.90
16392;DHT22;8305;-33.882;151.134;2023-02-28T00:16:45;24.20;99.90
16392;DHT22;8305;-33.882;151.134;2023-02-28T00:19:16;24.10;99.90
16392;DHT22;8305;-33.882;151.134;2023-02-28T00:21:49;24.10;99.90
16392;DHT22;8305;-33.882;151.134;2023-02-28T00:24:20;24.10;99.90
16392;DHT22;8305;-33.882;151.134;2023-02-28T00:26:51;24.00;99.90
16392;DHT22;8305;-33.882;151.134;2023-02-28T00:29:22;24.00;99.90
16392;DHT22;8305;-33.882;151.134;2023-02-28T00:31:53;24.00;99.90
16392;DHT22;8305;-33.882;151.134;2023-02-28T00:34:26;24.00;99.90
16392;DHT22;8305;-33.882;151.134;2023-02-28T00:37:00;23.90;99.90
16392;DHT22;8305;-33.882;151.134;2023-02-28T00:39:32;23.80;99.90
16392;DHT22;8305;-33.882;151.134;2023-02-28T00:42:04;23.70;99.90
16392;DHT22;8305;-33.882;151.134;2023-02-28T00:44:36;23.60;99.90
16392;DHT22;8305;-33.882;151.134;2023-02-28T00:47:07;23.50;99.90
16392;DHT22;8305;-33.882;151.134;2023-02-28T00:49:38;23.50;99.90
16392;DHT22;8305;-33.882;151.134;2023-02-28T00:52:11;23.50;99.90
16392;DHT22;8305;-33.882;151.134;2023-02-28T00:54:42;23.50;99.90
16392;DHT22;8305;-33.882;151.134;2023-02-28T00:57:13;23.50;99.90
16392;DHT22;8305;-33.882;151.134;2023-02-28T00:59:45;23.50;99.90
16392;DHT22;8305;-33.882;151.134;2023-02-28T01:02:16;23.60;99.90
16392;DHT22;8305;-33.882;151.134;2023-02-28T01:04:48;23.70;99.90
16392;DHT22;8305;-33.882;151.134;2023-02-28T01:07:21;23.80;99.90
16392;DHT22;8305;-33.882;151.134;2023-02-28T01:09:52;23.90;99.90
16392;DHT22;8305;-33.882;151.134;2023-02-28T01:12:23;24.10;99.90
16392;DHT22;8305;-33.882;151.134;2023-02-28T01:14:54;24.20;99.90
16392;DHT22;8305;-33.882;151.134;2023-02-28T01:17:25;24.20;99.90
16392;DHT22;8305;-33.882;151.134;2023-02-28T01:19:56;24.40;99.90
16392;DHT22;8305;-33.882;151.134;2023-02-28T01:22:29;24.50;99.90
16392;DHT22;8305;-33.882;151.134;2023-02-28T01:25:00;24.60;99.90
16392;DHT22;8305;-33.882;151.134;2023-02-28T01:27:31;24.80;99.90
16392;DHT22;8305;-33.882;151.134;2023-02-28T01:30:08;24.90;99.90
16392;DHT22;8305;-33.882;151.134;2023-02-28T01:32:39;25.10;99.90
16392;DHT22;8305;-33.882;151.134;2023-02-28T01:35:11;25.30;99.90
16392;DHT22;8305;-33.882;151.134;2023-02-28T01:37:45;25.40;99.90
16392;DHT22;8305;-33.882;151.134;2023-02-28T01:40:17;25.70;99.90
16392;DHT22;8305;-33.882;151.134;2023-02-28T01:42:49;25.90;99.90
16392;DHT22;8305;-33.882;151.134;2023-02-28T01:45:25;26.10;99.90
16392;DHT22;8305;-33.882;151.134;2023-02-28T01:48:00;26.00;99.90
16392;DHT22;8305;-33.882;151.134;2023-02-28T01:50:36;26.00;99.90
16392;DHT22;8305;-33.882;151.134;2023-02-28T01:53:15;26.00;99.90
16392;DHT22;8305;-33.882;151.134;2023-02-28T01:55:49;26.00;99.90
16392;DHT22;8305;-33.882;151.134;2023-02-28T01:58:22;26.00;99.90
16392;DHT22;8305;-33.882;151.134;2023-02-28T02:00:53;25.90;99.90
16392;DHT22;8305;-33.882;151.134;2023-02-28T02:03:25;25.90;99.90
16392;DHT22;8305;-33.882;151.134;2023-02-28T02:05:56;25.90;99.90
16392;DHT22;8305;-33.882;151.134;2023-02-28T02:08:30;25.90;99.90
16392;DHT22;8305;-33.882;151.134;2023-02-28T02:11:02;25.80;99.90
16392;DHT22;8305;-33.882;151.134;2023-02-28T02:13:46;25.70;99.90
16392;DHT22;8305;-33.882;151.134;2023-02-28T02:16:30;25.50;99.90
16392;DHT22;8305;-33.882;151.134;2023-02-28T02:19:14;25.40;99.90
16392;DHT22;8305;-33.882;151.134;2023-02-28T02:22:20;25.40;99.90
16392;DHT22;8305;-33.882;151.134;2023-02-28T02:25:15;25.40;99.90
16392;DHT22;8305;-33.882;151.134;2023-02-28T02:28:25;25.50;99.90
16392;DHT22;8305;-33.882;151.134;2023-02-28T02:37:15;25.40;99.90
16392;DHT22;8305;-33.882;151.134;2023-02-28T02:39:52;25.40;99.90
16392;DHT22;8305;-33.882;151.134;2023-02-28T02:42:29;25.40;99.90
16392;DHT22;8305;-33.882;151.134;2023-02-28T02:45:05;25.40;99.90
16392;DHT22;8305;-33.882;151.134;2023-02-28T02:47:38;25.30;99.90
16392;DHT22;8305;-33.882;151.134;2023-02-28T02:50:14;25.30;99.90
16392;DHT22;8305;-33.882;151.134;2023-02-28T02:52:52;25.30;99.90
16392;DHT22;8305;-33.882;151.134;2023-02-28T02:55:25;25.30;99.90
16392;DHT22;8305;-33.882;151.134;2023-02-28T02:57:59;25.30;99.90
16392;DHT22;8305;-33.882;151.134;2023-02-28T03:00:35;25.30;99.90
16392;DHT22;8305;-33.882;151.134;2023-02-28T03:03:08;25.50;99.90
16392;DHT22;8305;-33.882;151.134;2023-02-28T03:05:45;25.70;99.90
16392;DHT22;8305;-33.882;151.134;2023-02-28T03:08:18;26.00;99.90
16392;DHT22;8305;-33.882;151.134;2023-02-28T03:10:51;26.10;99.90
16392;DHT22;8305;-33.882;151.134;2023-02-28T03:13:44;26.10;99.90
16392;DHT22;8305;-33.882;151.134;2023-02-28T03:16:35;26.20;99.90
16392;DHT22;8305;-33.882;151.134;2023-02-28T03:22:19;26.60;99.90
16392;DHT22;8305;-33.882;151.134;2023-02-28T03:25:00;26.60;99.90
16392;DHT22;8305;-33.882;151.134;2023-02-28T03:27:38;26.70;99.90
16392;DHT22;8305;-33.882;151.134;2023-02-28T03:30:14;26.70;99.90
16392;DHT22;8305;-33.882;151.134;2023-02-28T03:32:54;26.90;99.90
16392;DHT22;8305;-33.882;151.134;2023-02-28T03:35:30;26.80;99.90
16392;DHT22;8305;-33.882;151.134;2023-02-28T03:38:07;26.90;99.90
16392;DHT22;8305;-33.882;151.134;2023-02-28T03:40:45;26.90;99.90
16392;DHT22;8305;-33.882;151.134;2023-02-28T03:43:22;26.90;99.90
16392;DHT22;8305;-33.882;151.134;2023-02-28T03:45:55;27.00;99.90
16392;DHT22;8305;-33.882;151.134;2023-02-28T03:48:30;27.00;99.90
16392;DHT22;8305;-33.882;151.134;2023-02-28T03:51:03;26.90;99.90
16392;DHT22;8305;-33.882;151.134;2023-02-28T03:53:39;26.90;99.90
16392;DHT22;8305;-33.882;151.134;2023-02-28T03:56:14;26.90;99.90
16392;DHT22;8305;-33.882;151.134;2023-02-28T03:58:53;26.80;99.90
16392;DHT22;8305;-33.882;151.134;2023-02-28T04:01:30;26.80;99.90
16392;DHT22;8305;-33.882;151.134;2023-02-28T04:04:03;26.90;99.90
16392;DHT22;8305;-33.882;151.134;2023-02-28T04:06:35;27.00;99.90
16392;DHT22;8305;-33.882;151.134;2023-02-28T04:09:07;27.00;99.90
16392;DHT22;8305;-33.882;151.134;2023-02-28T04:11:42;27.00;99.90
16392;DHT22;8305;-33.882;151.134;2023-02-28T04:14:13;27.10;99.90
16392;DHT22;8305;-33.882;151.134;2023-02-28T04:16:45;27.10;99.90
16392;DHT22;8305;-33.882;151.134;2023-02-28T04:19:16;27.00;99.90
16392;DHT22;8305;-33.882;151.134;2023-02-28T04:21:48;27.10;99.90
16392;DHT22;8305;-33.882;151.134;2023-02-28T04:24:20;27.10;99.90
16392;DHT22;8305;-33.882;151.134;2023-02-28T04:26:54;27.20;99.90
16392;DHT22;8305;-33.882;151.134;2023-02-28T04:29:28;27.40;99.90
16392;DHT22;8305;-33.882;151.134;2023-02-28T04:32:00;27.40;99.90
16392;DHT22;8305;-33.882;151.134;2023-02-28T04:34:32;27.20;99.90
16392;DHT22;8305;-33.882;151.134;2023-02-28T04:37:03;27.00;99.90
16392;DHT22;8305;-33.882;151.134;2023-02-28T04:39:37;26.70;99.90
16392;DHT22;8305;-33.882;151.134;2023-02-28T04:42:10;26.60;99.90
16392;DHT22;8305;-33.882;151.134;2023-02-28T04:44:41;26.50;99.90
16392;DHT22;8305;-33.882;151.134;2023-02-28T04:47:12;26.50;99.90
16392;DHT22;8305;-33.882;151.134;2023-02-28T04:49:43;26.50;99.90
16392;DHT22;8305;-33.882;151.134;2023-02-28T04:52:14;26.50;99.90
16392;DHT22;8305;-33.882;151.134;2023-02-28T04:54:45;26.60;99.90
16392;DHT22;8305;-33.882;151.134;2023-02-28T04:57:18;26.60;99.90
16392;DHT22;8305;-33.882;151.134;2023-02-28T04:59:49;26.50;99.90
16392;DHT22;8305;-33.882;151.134;2023-02-28T05:02:21;26.60;99.90
16392;DHT22;8305;-33.882;151.134;2023-02-28T05:04:52;26.70;99.90
16392;DHT22;8305;-33.882;151.134;2023-02-28T05:07:23;26.80;99.90
16392;DHT22;8305;-33.882;151.134;2023-02-28T05:09:54;26.70;99.90
16392;DHT22;8305;-33.882;151.134;2023-02-28T05:12:27;26.80;99.90
16392;DHT22;8305;-33.882;151.134;2023-02-28T05:14:58;26.80;99.90
16392;DHT22;8305;-33.882;151.134;2023-02-28T05:17:30;26.80;99.90
16392;DHT22;8305;-33.882;151.134;2023-02-28T05:20:01;26.70;99.90
16392;DHT22;8305;-33.882;151.134;2023-02-28T05:22:33;26.70;99.90
16392;DHT22;8305;-33.882;151.134;2023-02-28T05:25:05;26.50;99.90
16392;DHT22;8305;-33.882;151.134;2023-02-28T05:27:38;26.40;99.90
16392;DHT22;8305;-33.882;151.134;2023-02-28T05:30:10;26.30;99.90
16392;DHT22;8305;-33.882;151.134;2023-02-28T05:32:41;26.20;99.90
16392;DHT22;8305;-33.882;151.134;2023-02-28T05:35:13;26.10;99.90
16392;DHT22;8305;-33.882;151.134;2023-02-28T05:37:44;26.10;99.90
16392;DHT22;8305;-33.882;151.134;2023-02-28T05:40:15;26.10;99.90
16392;DHT22;8305;-33.882;151.134;2023-02-28T05:42:51;26.10;99.90
16392;DHT22;8305;-33.882;151.134;2023-02-28T05:45:22;26.10;99.90
16392;DHT22;8305;-33.882;151.134;2023-02-28T05:47:55;26.10;99.90
16392;DHT22;8305;-33.882;151.134;2023-02-28T05:50:26;26.20;99.90
16392;DHT22;8305;-33.882;151.134;2023-02-28T05:52:57;26.30;99.90
16392;DHT22;8305;-33.882;151.134;2023-02-28T05:55:28;26.40;99.90
16392;DHT22;8305;-33.882;151.134;2023-02-28T05:58:03;26.20;99.90
16392;DHT22;8305;-33.882;151.134;2023-02-28T06:00:34;26.10;99.90
16392;DHT22;8305;-33.882;151.134;2023-02-28T06:03:05;26.10;99.90
16392;DHT22;8305;-33.882;151.134;2023-02-28T06:05:36;25.90;99.90
16392;DHT22;8305;-33.882;151.134;2023-02-28T06:08:07;25.80;99.90
16392;DHT22;8305;-33.882;151.134;2023-02-28T06:10:38;25.70;99.90
16392;DHT22;8305;-33.882;151.134;2023-02-28T06:13:11;25.70;99.90
16392;DHT22;8305;-33.882;151.134;2023-02-28T06:15:43;25.60;99.90
16392;DHT22;8305;-33.882;151.134;2023-02-28T06:18:14;25.50;99.90
16392;DHT22;8305;-33.882;151.134;2023-02-28T06:20:45;25.60;99.90
16392;DHT22;8305;-33.882;151.134;2023-02-28T06:23:22;25.60;99.90
16392;DHT22;8305;-33.882;151.134;2023-02-28T06:25:53;25.60;99.90
16392;DHT22;8305;-33.882;151.134;2023-02-28T06:28:28;25.60;99.90
16392;DHT22;8305;-33.882;151.134;2023-02-28T06:30:59;25.80;99.90
16392;DHT22;8305;-33.882;151.134;2023-02-28T06:33:30;25.80;99.90
16392;DHT22;8305;-33.882;151.134;2023-02-28T06:36:01;25.80;99.90
16392;DHT22;8305;-33.882;151.134;2023-02-28T06:38:32;25.60;99.90
16392;DHT22;8305;-33.882;151.134;2023-02-28T06:41:04;25.60;99.90
16392;DHT22;8305;-33.882;151.134;2023-02-28T06:43:39;25.60;99.90
16392;DHT22;8305;-33.882;151.134;2023-02-28T06:46:13;25.60;99.90
16392;DHT22;8305;-33.882;151.134;2023-02-28T06:48:45;25.50;99.90
16392;DHT22;8305;-33.882;151.134;2023-02-28T06:51:18;25.50;99.90
16392;DHT22;8305;-33.882;151.134;2023-02-28T06:53:50;25.40;99.90
16392;DHT22;8305;-33.882;151.134;2023-02-28T06:56:21;25.30;99.90
16392;DHT22;8305;-33.882;151.134;2023-02-28T06:58:54;25.30;99.90
16392;DHT22;8305;-33.882;151.134;2023-02-28T07:01:25;25.20;99.90
16392;DHT22;8305;-33.882;151.134;2023-02-28T07:03:57;25.10;99.90
16392;DHT22;8305;-33.882;151.134;2023-02-28T07:06:28;25.00;99.90
16392;DHT22;8305;-33.882;151.134;2023-02-28T07:08:59;25.00;99.90
16392;DHT22;8305;-33.882;151.134;2023-02-28T07:11:31;25.00;99.90
16392;DHT22;8305;-33.882;151.134;2023-02-28T07:14:04;25.00;99.90
16392;DHT22;8305;-33.882;151.134;2023-02-28T07:16:36;25.00;99.90
16392;DHT22;8305;-33.882;151.134;2023-02-28T07:19:07;24.90;99.90
16392;DHT22;8305;-33.882;151.134;2023-02-28T07:21:38;24.90;99.90
16392;DHT22;8305;-33.882;151.134;2023-02-28T07:24:09;24.90;99.90
16392;DHT22;8305;-33.882;151.134;2023-02-28T07:26:43;24.80;99.90
16392;DHT22;8305;-33.882;151.134;2023-02-28T07:29:16;24.80;99.90
16392;DHT22;8305;-33.882;151.134;2023-02-28T07:31:47;24.80;99.90
16392;DHT22;8305;-33.882;151.134;2023-02-28T07:34:21;24.70;99.90
16392;DHT22;8305;-33.882;151.134;2023-02-28T07:36:54;24.70;99.90
16392;DHT22;8305;-33.882;151.134;2023-02-28T07:39:25;24.50;99.90
16392;DHT22;8305;-33.882;151.134;2023-02-28T07:41:56;24.50;99.90
16392;DHT22;8305;-33.882;151.134;2023-02-28T07:44:29;24.50;99.90
16392;DHT22;8305;-33.882;151.134;2023-02-28T07:47:01;24.40;99.90
16392;DHT22;8305;-33.882;151.134;2023-02-28T07:49:32;24.40;99.90
16392;DHT22;8305;-33.882;151.134;2023-02-28T07:52:03;24.30;99.90
16392;DHT22;8305;-33.882;151.134;2023-02-28T07:54:34;24.30;99.90
16392;DHT22;8305;-33.882;151.134;2023-02-28T07:57:05;24.30;99.90
16392;DHT22;8305;-33.882;151.134;2023-02-28T07:59:38;24.30;99.90
16392;DHT22;8305;-33.882;151.134;2023-02-28T08:02:11;24.30;99.90
16392;DHT22;8305;-33.882;151.134;2023-02-28T08:04:43;24.30;99.90
16392;DHT22;8305;-33.882;151.134;2023-02-28T08:07:15;24.20;99.90
16392;DHT22;8305;-33.882;151.134;2023-02-28T08:09:47;24.20;99.90
16392;DHT22;8305;-33.882;151.134;2023-02-28T08:12:18;24.10;99.90
16392;DHT22;8305;-33.882;151.134;2023-02-28T08:14:51;24.10;99.90
16392;DHT22;8305;-33.882;151.134;2023-02-28T08:17:22;24.10;99.90
16392;DHT22;8305;-33.882;151.134;2023-02-28T08:19:53;24.10;99.90
16392;DHT22;8305;-33.882;151.134;2023-02-28T08:22:24;24.00;99.90
16392;DHT22;8305;-33.882;151.134;2023-02-28T08:24:55;24.00;99.90
16392;DHT22;8305;-33.882;151.134;2023-02-28T08:27:26;24.00;99.90
16392;DHT22;8305;-33.882;151.134;2023-02-28T08:29:59;23.90;99.90
16392;DHT22;8305;-33.882;151.134;2023-02-28T08:32:32;23.80;99.90
16392;DHT22;8305;-33.882;151.134;2023-02-28T08:35:03;23.80;99.90
16392;DHT22;8305;-33.882;151.134;2023-02-28T08:37:34;23.80;99.90
16392;DHT22;8305;-33.882;151.134;2023-02-28T08:40:07;23.80;99.90
16392;DHT22;8305;-33.882;151.134;2023-02-28T08:42:38;23.70;99.90
16392;DHT22;8305;-33.882;151.134;2023-02-28T08:45:11;23.80;99.90
16392;DHT22;8305;-33.882;151.134;2023-02-28T08:47:42;23.70;99.90
16392;DHT22;8305;-33.882;151.134;2023-02-28T08:50:13;23.70;99.90
16392;DHT22;8305;-33.882;151.134;2023-02-28T08:52:44;23.70;99.90
16392;DHT22;8305;-33.882;151.134;2023-02-28T08:55:16;23.70;99.90
16392;DHT22;8305;-33.882;151.134;2023-02-28T08:57:47;23.70;99.90
16392;DHT22;8305;-33.882;151.134;2023-02-28T09:00:21;23.70;99.90
16392;DHT22;8305;-33.882;151.134;2023-02-28T09:02:52;23.60;99.90
16392;DHT22;8305;-33.882;151.134;2023-02-28T09:05:23;23.60;99.90
16392;DHT22;8305;-33.882;151.134;2023-02-28T09:07:57;23.60;99.90
16392;DHT22;8305;-33.882;151.134;2023-02-28T09:10:28;23.60;99.90
16392;DHT22;8305;-33.882;151.134;2023-02-28T09:12:59;23.60;99.90
16392;DHT22;8305;-33.882;151.134;2023-02-28T09:15:32;23.50;99.90
16392;DHT22;8305;-33.882;151.134;2023-02-28T09:18:03;23.60;99.90
16392;DHT22;8305;-33.882;151.134;2023-02-28T09:20:34;23.60;99.90
16392;DHT22;8305;-33.882;151.134;2023-02-28T09:23:08;23.50;99.90
16392;DHT22;8305;-33.882;151.134;2023-02-28T09:25:46;23.50;99.90
16392;DHT22;8305;-33.882;151.134;2023-02-28T09:28:19;23.50;99.90
16392;DHT22;8305;-33.882;151.134;2023-02-28T09:30:53;23.60;99.90
16392;DHT22;8305;-33.882;151.134;2023-02-28T09:33:25;23.60;99.90
16392;DHT22;8305;-33.882;151.134;2023-02-28T09:36:00;23.50;99.90
16392;DHT22;8305;-33.882;151.134;2023-02-28T09:38:31;23.50;99.90
16392;DHT22;8305;-33.882;151.134;2023-02-28T09:41:08;23.50;99.90
16392;DHT22;8305;-33.882;151.134;2023-02-28T09:43:45;23.50;99.90
16392;DHT22;8305;-33.882;151.134;2023-02-28T09:46:28;23.50;99.90
16392;DHT22;8305;-33.882;151.134;2023-02-28T09:49:07;23.50;99.90
16392;DHT22;8305;-33.882;151.134;2023-02-28T09:51:50;23.50;99.90
16392;DHT22;8305;-33.882;151.134;2023-02-28T09:54:23;23.50;99.90
16392;DHT22;8305;-33.882;151.134;2023-02-28T09:56:58;23.60;99.90
16392;DHT22;8305;-33.882;151.134;2023-02-28T09:59:52;23.60;99.90
16392;DHT22;8305;-33.882;151.134;2023-02-28T10:05:38;23.60;99.90
16392;DHT22;8305;-33.882;151.134;2023-02-28T10:08:15;23.60;99.90
16392;DHT22;8305;-33.882;151.134;2023-02-28T10:10:48;23.60;99.90
16392;DHT22;8305;-33.882;151.134;2023-02-28T10:13:26;23.60;99.90
16392;DHT22;8305;-33.882;151.134;2023-02-28T10:16:03;23.60;99.90
16392;DHT22;8305;-33.882;151.134;2023-02-28T10:18:43;23.60;99.90
16392;DHT22;8305;-33.882;151.134;2023-02-28T10:21:19;23.60;99.90
16392;DHT22;8305;-33.882;151.134;2023-02-28T10:24:04;23.70;99.90
16392;DHT22;8305;-33.882;151.134;2023-02-28T10:26:37;23.60;99.90
16392;DHT22;8305;-33.882;151.134;2023-02-28T10:29:09;23.60;99.90
16392;DHT22;8305;-33.882;151.134;2023-02-28T10:31:41;23.70;99.90
16392;DHT22;8305;-33.882;151.134;2023-02-28T10:34:15;23.60;99.90
16392;DHT22;8305;-33.882;151.134;2023-02-28T10:36:46;23.70;99.90
16392;DHT22;8305;-33.882;151.134;2023-02-28T10:39:38;23.70;99.90
16392;DHT22;8305;-33.882;151.134;2023-02-28T10:42:24;23.70;99.90
16392;DHT22;8305;-33.882;151.134;2023-02-28T10:45:16;23.70;99.90
16392;DHT22;8305;-33.882;151.134;2023-02-28T10:47:54;23.70;99.90
16392;DHT22;8305;-33.882;151.134;2023-02-28T10:50:37;23.70;99.90
16392;DHT22;8305;-33.882;151.134;2023-02-28T10:53:30;23.70;99.90
16392;DHT22;8305;-33.882;151.134;2023-02-28T10:56:03;23.70;99.90
16392;DHT22;8305;-33.882;151.134;2023-02-28T10:58:47;23.70;99.90
16392;DHT22;8305;-33.882;151.134;2023-02-28T11:01:20;23.70;99.90
16392;DHT22;8305;-33.882;151.134;2023-02-28T11:03:52;23.70;99.90
16392;DHT22;8305;-33.882;151.134;2023-02-28T11:06:28;23.70;99.90
16392;DHT22;8305;-33.882;151.134;2023-02-28T11:09:04;23.70;99.90
16392;DHT22;8305;-33.882;151.134;2023-02-28T11:11:44;23.70;99.90
16392;DHT22;8305;-33.882;151.134;2023-02-28T11:14:20;23.70;99.90
16392;DHT22;8305;-33.882;151.134;2023-02-28T11:16:53;23.70;99.90
16392;DHT22;8305;-33.882;151.134;2023-02-28T11:19:28;23.70;99.90
16392;DHT22;8305;-33.882;151.134;2023-02-28T11:22:05;23.70;99.90
16392;DHT22;8305;-33.882;151.134;2023-02-28T11:24:40;23.70;99.90
16392;DHT22;8305;-33.882;151.134;2023-02-28T11:27:26;23.70;99.90
16392;DHT22;8305;-33.882;151.134;2023-02-28T11:30:26;23.70;99.90
16392;DHT22;8305;-33.882;151.134;2023-02-28T11:32:57;23.70;99.90
16392;DHT22;8305;-33.882;151.134;2023-02-28T11:35:31;23.70;99.90
16392;DHT22;8305;-33.882;151.134;2023-02-28T11:38:04;23.70;99.90
16392;DHT22;8305;-33.882;151.134;2023-02-28T11:40:42;23.70;99.90
16392;DHT22;8305;-33.882;151.134;2023-02-28T11:43:27;23.70;99.90
16392;DHT22;8305;-33.882;151.134;2023-02-28T11:46:09;23.60;99.90
16392;DHT22;8305;-33.882;151.134;2023-02-28T11:48:49;23.60;99.90
16392;DHT22;8305;-33.882;151.134;2023-02-28T11:51:26;23.60;99.90
16392;DHT22;8305;-33.882;151.134;2023-02-28T11:54:27;23.60;99.90
16392;DHT22;8305;-33.882;151.134;2023-02-28T11:57:00;23.60;99.90
16392;DHT22;8305;-33.882;151.134;2023-02-28T11:59:51;23.60;99.90
16392;DHT22;8305;-33.882;151.134;2023-02-28T12:02:26;23.50;99.90
16392;DHT22;8305;-33.882;151.134;2023-02-28T12:05:12;23.50;99.90
16392;DHT22;8305;-33.882;151.134;2023-02-28T12:07:50;23.50;99.90
16392;DHT22;8305;-33.882;151.134;2023-02-28T12:10:29;23.50;99.90
16392;DHT22;8305;-33.882;151.134;2023-02-28T12:13:16;23.50;99.90
16392;DHT22;8305;-33.882;151.134;2023-02-28T12:15:58;23.50;99.90
16392;DHT22;8305;-33.882;151.134;2023-02-28T12:18:53;23.50;99.90
16392;DHT22;8305;-33.882;151.134;2023-02-28T12:21:33;23.40;99.90
16392;DHT22;8305;-33.882;151.134;2023-02-28T12:27:19;23.40;99.90
16392;DHT22;8305;-33.882;151.134;2023-02-28T12:29:55;23.40;99.90
16392;DHT22;8305;-33.882;151.134;2023-02-28T12:32:30;23.40;99.90
16392;DHT22;8305;-33.882;151.134;2023-02-28T12:35:10;23.40;99.90
16392;DHT22;8305;-33.882;151.134;2023-02-28T12:37:44;23.40;99.90
16392;DHT22;8305;-33.882;151.134;2023-02-28T12:40:21;23.40;99.90
16392;DHT22;8305;-33.882;151.134;2023-02-28T12:42:57;23.40;99.90
16392;DHT22;8305;-33.882;151.134;2023-02-28T12:45:36;23.40;99.90
16392;DHT22;8305;-33.882;151.134;2023-02-28T12:48:13;23.40;99.90
16392;DHT22;8305;-33.882;151.134;2023-02-28T12:50:48;23.40;99.90
16392;DHT22;8305;-33.882;151.134;2023-02-28T12:53:25;23.50;99.90
16392;DHT22;8305;-33.882;151.134;2023-02-28T12:56:04;23.40;99.90
16392;DHT22;8305;-33.882;151.134;2023-02-28T12:58:43;23.50;99.90
16392;DHT22;8305;-33.882;151.134;2023-02-28T13:07:48;23.50;99.90
16392;DHT22;8305;-33.882;151.134;2023-02-28T13:10:22;23.50;99.90
16392;DHT22;8305;-33.882;151.134;2023-02-28T13:12:54;23.50;99.90
16392;DHT22;8305;-33.882;151.134;2023-02-28T13:15:28;23.50;99.90
16392;DHT22;8305;-33.882;151.134;2023-02-28T13:18:03;23.50;99.90
16392;DHT22;8305;-33.882;151.134;2023-02-28T13:20:36;23.50;99.90
16392;DHT22;8305;-33.882;151.134;2023-02-28T13:29:38;23.50;99.90
16392;DHT22;8305;-33.882;151.134;2023-02-28T13:32:35;23.50;99.90
16392;DHT22;8305;-33.882;151.134;2023-02-28T13:35:37;23.50;99.90
16392;DHT22;8305;-33.882;151.134;2023-02-28T13:38:25;23.50;99.90
16392;DHT22;8305;-33.882;151.134;2023-02-28T13:44:14;23.50;99.90
16392;DHT22;8305;-33.882;151.134;2023-02-28T13:47:22;23.50;99.90
16392;DHT22;8305;-33.882;151.134;2023-02-28T13:50:16;23.50;99.90
16392;DHT22;8305;-33.882;151.134;2023-02-28T13:53:03;23.50;99.90
16392;DHT22;8305;-33.882;151.134;2023-02-28T13:55:43;23.50;99.90
16392;DHT22;8305;-33.882;151.134;2023-02-28T14:01:33;23.50;99.90
16392;DHT22;8305;-33.882;151.134;2023-02-28T14:07:27;23.50;99.90
16392;DHT22;8305;-33.882;151.134;2023-02-28T14:10:02;23.40;99.90
16392;DHT22;8305;-33.882;151.134;2023-02-28T14:13:02;23.40;99.90
16392;DHT22;8305;-33.882;151.134;2023-02-28T14:15:55;23.40;99.90
16392;DHT22;8305;-33.882;151.134;2023-02-28T14:18:29;23.50;99.90
16392;DHT22;8305;-33.882;151.134;2023-02-28T14:21:11;23.50;99.90
16392;DHT22;8305;-33.882;151.134;2023-02-28T14:24:10;23.40;99.90
16392;DHT22;8305;-33.882;151.134;2023-02-28T14:27:05;23.40;99.90
16392;DHT22;8305;-33.882;151.134;2023-02-28T14:32:58;23.50;99.90
16392;DHT22;8305;-33.882;151.134;2023-02-28T14:36:01;23.40;99.90
16392;DHT22;8305;-33.882;151.134;2023-02-28T14:38:41;23.50;99.90
16392;DHT22;8305;-33.882;151.134;2023-02-28T14:41:23;23.40;99.90
16392;DHT22;8305;-33.882;151.134;2023-02-28T14:43:56;23.40;99.90
16392;DHT22;8305;-33.882;151.134;2023-02-28T14:46:34;23.40;99.90
16392;DHT22;8305;-33.882;151.134;2023-02-28T14:49:09;23.40;99.90
16392;DHT22;8305;-33.882;151.134;2023-02-28T14:51:43;23.40;99.90
16392;DHT22;8305;-33.882;151.134;2023-02-28T14:54:16;23.40;99.90
16392;DHT22;8305;-33.882;151.134;2023-02-28T14:56:53;23.40;99.90
16392;DHT22;8305;-33.882;151.134;2023-02-28T14:59:30;23.40;99.90
16392;DHT22;8305;-33.882;151.134;2023-02-28T15:02:19;23.40;99.90
16392;DHT22;8305;-33.882;151.134;2023-02-28T15:04:58;23.40;99.90
16392;DHT22;8305;-33.882;151.134;2023-02-28T15:07:29;23.40;99.90
16392;DHT22;8305;-33.882;151.134;2023-02-28T15:10:20;23.40;99.90
16392;DHT22;8305;-33.882;151.134;2023-02-28T15:12:56;23.40;99.90
16392;DHT22;8305;-33.882;151.134;2023-02-28T15:15:32;23.40;99.90
16392;DHT22;8305;-33.882;151.134;2023-02-28T15:18:06;23.40;99.90
16392;DHT22;8305;-33.882;151.134;2023-02-28T15:20:40;23.40;99.90
16392;DHT22;8305;-33.882;151.134;2023-02-28T15:23:12;23.40;99.90
16392;DHT22;8305;-33.882;151.134;2023-02-28T15:25:43;23.40;99.90
16392;DHT22;8305;-33.882;151.134;2023-02-28T15:28:20;23.40;99.90
16392;DHT22;8305;-33.882;151.134;2023-02-28T15:30:55;23.40;99.90
16392;DHT22;8305;-33.882;151.134;2023-02-28T15:33:27;23.40;99.90
16392;DHT22;8305;-33.882;151.134;2023-02-28T15:36:13;23.40;99.90
16392;DHT22;8305;-33.882;151.134;2023-02-28T15:38:45;23.40;99.90
16392;DHT22;8305;-33.882;151.134;2023-02-28T15:41:26;23.40;99.90
16392;DHT22;8305;-33.882;151.134;2023-02-28T15:44:28;23.50;99.90
16392;DHT22;8305;-33.882;151.134;2023-02-28T15:47:02;23.50;99.90
16392;DHT22;8305;-33.882;151.134;2023-02-28T15:49:40;23.50;99.90
16392;DHT22;8305;-33.882;151.134;2023-02-28T15:52:18;23.50;99.90
16392;DHT22;8305;-33.882;151.134;2023-02-28T15:54:50;23.40;99.90
16392;DHT22;8305;-33.882;151.134;2023-02-28T15:57:23;23.50;99.90
16392;DHT22;8305;-33.882;151.134;2023-02-28T16:00:00;23.50;99.90
16392;DHT22;8305;-33.882;151.134;2023-02-28T16:02:33;23.50;99.90
16392;DHT22;8305;-33.882;151.134;2023-02-28T16:05:20;23.40;99.90
16392;DHT22;8305;-33.882;151.134;2023-02-28T16:07:56;23.40;99.90
16392;DHT22;8305;-33.882;151.134;2023-02-28T16:10:28;23.40;99.90
16392;DHT22;8305;-33.882;151.134;2023-02-28T16:13:01;23.50;99.90
16392;DHT22;8305;-33.882;151.134;2023-02-28T16:15:37;23.50;99.90
16392;DHT22;8305;-33.882;151.134;2023-02-28T16:18:12;23.50;99.90
16392;DHT22;8305;-33.882;151.134;2023-02-28T16:20:43;23.40;99.90
16392;DHT22;8305;-33.882;151.134;2023-02-28T16:23:14;23.40;99.90
16392;DHT22;8305;-33.882;151.134;2023-02-28T16:25:46;23.40;99.90
16392;DHT22;8305;-33.882;151.134;2023-02-28T16:28:21;23.40;99.90
16392;DHT22;8305;-33.882;151.134;2023-02-28T16:30:55;23.40;99.90
16392;DHT22;8305;-33.882;151.134;2023-02-28T16:33:27;23.50;99.90
16392;DHT22;8305;-33.882;151.134;2023-02-28T16:35:58;23.50;99.90